Time;durP1;ratioP1;P1;durP2;ratioP2;P2;SDS_P1;SDS_P2;PMS_P1;PMS_P2;Temp;Humidity;BMP_temperature;BMP_pressure;BME280_temperature;BME280_humidity;BME280_pressure;Samples;Min_cycle;Max_cycle;Signal;HPM_P1;HPM_P2
2023/07/30 00:01:54;;;;;;;10.20;3.00;;;20.40;99.90;;;;;;5052545;28;20493;-60
2023/07/30 00:04:20;;;;;;;9.50;3.30;;;20.30;99.90;;;;;;5052408;28;20016;-60
2023/07/30 00:06:46;;;;;;;10.45;3.40;;;20.10;99.90;;;;;;5052273;28;20031;-60
2023/07/30 00:09:12;;;;;;;7.30;3.03;;;19.80;99.90;;;;;;5052380;28;20498;-60
2023/07/30 00:11:38;;;;;;;9.50;3.90;;;19.70;99.90;;;;;;5052204;28;20036;-60
2023/07/30 00:14:04;;;;;;;10.15;3.60;;;19.60;99.90;;;;;;5052096;28;20100;-60
2023/07/30 00:16:29;;;;;;;9.50;3.28;;;19.50;99.90;;;;;;5052209;28;20498;-60
2023/07/30 00:18:56;;;;;;;8.23;3.17;;;19.50;99.90;;;;;;5052248;28;20032;-61
2023/07/30 00:21:22;;;;;;;8.90;3.25;;;19.40;99.90;;;;;;5052265;28;20033;-60
2023/07/30 00:23:48;;;;;;;7.38;3.17;;;19.40;99.90;;;;;;5051732;28;20052;-60
2023/07/30 00:26:13;;;;;;;12.02;3.97;;;19.30;99.90;;;;;;5051949;28;20382;-61
2023/07/30 00:28:39;;;;;;;11.45;4.15;;;19.40;99.90;;;;;;5051910;28;20036;-60
2023/07/30 00:31:05;;;;;;;8.95;3.70;;;19.30;99.90;;;;;;5052003;28;20029;-60
2023/07/30 00:33:30;;;;;;;8.02;3.38;;;19.30;99.90;;;;;;5052078;28;20343;-60
2023/07/30 00:35:56;;;;;;;9.02;3.20;;;19.20;99.90;;;;;;5051683;28;20522;-60
2023/07/30 00:38:22;;;;;;;9.68;3.45;;;19.20;99.90;;;;;;5051744;28;20025;-60
2023/07/30 00:40:47;;;;;;;10.65;3.75;;;19.20;99.90;;;;;;5051809;28;20064;-60
2023/07/30 00:43:13;;;;;;;11.93;3.78;;;19.20;99.90;;;;;;5051893;28;20021;-60
2023/07/30 00:45:41;;;;;;;11.68;3.75;;;19.10;99.90;;;;;;5052075;28;20398;-60
2023/07/30 00:48:07;;;;;;;7.97;3.58;;;19.10;99.90;;;;;;5051568;28;20084;-60
2023/07/30 00:50:33;;;;;;;10.85;3.63;;;19.30;99.90;;;;;;5051776;28;20556;-60
2023/07/30 00:52:59;;;;;;;8.43;3.17;;;19.40;99.90;;;;;;5051085;28;20021;-60
2023/07/30 00:55:25;;;;;;;10.02;3.97;;;19.60;99.90;;;;;;5051433;28;20041;-60
2023/07/30 00:57:51;;;;;;;8.60;3.00;;;19.60;99.90;;;;;;5051428;28;20028;-60
2023/07/30 01:00:17;;;;;;;9.15;4.30;;;19.70;99.90;;;;;;5051350;28;20085;-60
2023/07/30 01:02:44;;;;;;;9.57;3.45;;;19.70;99.90;;;;;;5051414;28;20406;-60
2023/07/30 01:05:09;;;;;;;9.85;3.45;;;19.80;99.90;;;;;;5051287;28;20024;-60
2023/07/30 01:07:35;;;;;;;11.27;3.80;;;19.80;99.90;;;;;;5051065;28;20516;-60
2023/07/30 01:10:02;;;;;;;10.93;3.67;;;19.90;99.90;;;;;;5051645;28;20394;-60
2023/07/30 01:12:31;;;;;;;7.85;3.40;;;19.70;99.90;;;;;;5051419;28;20029;-60
2023/07/30 01:14:58;;;;;;;9.27;3.80;;;19.80;99.90;;;;;;5051062;28;20033;-60
2023/07/30 01:17:23;;;;;;;11.10;3.70;;;19.80;99.90;;;;;;5051158;28;20056;-60
2023/07/30 01:19:49;;;;;;;11.68;4.00;;;19.70;99.90;;;;;;5051336;28;20482;-60
2023/07/30 01:22:16;;;;;;;11.32;3.60;;;19.50;99.90;;;;;;5050800;28;20021;-60
2023/07/30 01:24:42;;;;;;;10.48;3.65;;;19.40;99.90;;;;;;5051063;28;20572;-60
2023/07/30 01:27:12;;;;;;;9.80;3.33;;;19.20;99.90;;;;;;5051226;28;20087;-60
2023/07/30 01:29:42;;;;;;;12.65;3.92;;;19.10;99.90;;;;;;5051696;28;20509;-60
2023/07/30 01:32:11;;;;;;;9.73;3.60;;;19.00;99.90;;;;;;5051185;28;20052;-60
2023/07/30 01:34:39;;;;;;;10.48;3.78;;;18.90;99.90;;;;;;5050856;28;20116;-60
2023/07/30 01:37:11;;;;;;;9.38;3.63;;;18.90;99.90;;;;;;5050398;28;20029;-59
2023/07/30 01:39:39;;;;;;;8.02;3.75;;;18.80;99.90;;;;;;5051364;28;20512;-60
2023/07/30 01:42:05;;;;;;;8.70;3.53;;;18.70;99.90;;;;;;5050854;28;20505;-60
2023/07/30 01:44:31;;;;;;;9.85;3.70;;;18.70;99.90;;;;;;5051064;28;20033;-60
2023/07/30 01:46:56;;;;;;;9.63;3.70;;;18.60;99.90;;;;;;5050881;28;20391;-60
2023/07/30 01:49:22;;;;;;;8.90;3.80;;;18.50;99.90;;;;;;5051115;28;20037;-60
2023/07/30 01:51:49;;;;;;;9.80;4.20;;;18.50;99.90;;;;;;5050596;28;20096;-60
2023/07/30 01:54:14;;;;;;;11.75;3.90;;;18.50;99.90;;;;;;5050701;28;20025;-60
2023/07/30 01:56:40;;;;;;;9.07;3.85;;;18.50;99.90;;;;;;5049599;28;20036;-60
2023/07/30 01:59:06;;;;;;;9.50;4.00;;;18.50;99.90;;;;;;5049517;28;20394;-60
2023/07/30 02:01:31;;;;;;;12.13;4.85;;;18.50;99.90;;;;;;5051210;28;20555;-60
2023/07/30 02:03:57;;;;;;;9.85;3.85;;;18.40;99.90;;;;;;5050672;28;20105;-60
2023/07/30 02:06:22;;;;;;;10.10;3.72;;;18.50;99.90;;;;;;5050426;28;20037;-60
2023/07/30 02:08:48;;;;;;;8.60;3.75;;;18.70;99.90;;;;;;5049500;28;20032;-60
2023/07/30 02:11:14;;;;;;;9.60;3.67;;;18.80;99.90;;;;;;5054706;28;20029;-60
2023/07/30 02:13:39;;;;;;;8.55;3.78;;;18.80;99.90;;;;;;5054813;28;20029;-60
2023/07/30 02:16:05;;;;;;;8.77;3.92;;;18.90;99.90;;;;;;5054425;28;20049;-60
2023/07/30 02:18:31;;;;;;;8.68;3.70;;;18.90;99.90;;;;;;5054213;28;20020;-60
2023/07/30 02:20:56;;;;;;;7.30;3.60;;;19.00;99.90;;;;;;5054089;28;20041;-60
2023/07/30 02:23:22;;;;;;;8.00;3.83;;;19.00;99.90;;;;;;5054748;28;20029;-60
2023/07/30 02:25:48;;;;;;;9.15;3.45;;;19.00;99.90;;;;;;5054192;28;20144;-60
2023/07/30 02:28:13;;;;;;;8.80;3.63;;;18.90;99.90;;;;;;5054139;28;20057;-60
2023/07/30 02:30:39;;;;;;;7.35;4.05;;;18.80;99.90;;;;;;5054597;28;20029;-60
2023/07/30 02:33:05;;;;;;;9.18;3.80;;;18.90;99.90;;;;;;5054329;28;20031;-60
2023/07/30 02:35:30;;;;;;;8.32;3.70;;;18.90;99.90;;;;;;5053805;28;20045;-60
2023/07/30 02:37:56;;;;;;;9.48;3.55;;;18.60;99.90;;;;;;5054036;28;20017;-60
2023/07/30 02:40:22;;;;;;;10.98;4.18;;;18.40;99.90;;;;;;5054108;28;20029;-60
2023/07/30 02:42:47;;;;;;;11.10;3.75;;;18.30;99.90;;;;;;5052648;28;20028;-61
2023/07/30 02:45:13;;;;;;;8.32;3.70;;;18.10;99.90;;;;;;5054367;28;20031;-60
2023/07/30 02:47:39;;;;;;;8.82;4.10;;;18.00;99.90;;;;;;5053710;28;20032;-60
2023/07/30 02:50:08;;;;;;;7.50;3.80;;;18.00;99.90;;;;;;5053554;28;20552;-59
2023/07/30 02:52:34;;;;;;;8.85;3.88;;;17.90;99.90;;;;;;5053913;28;20486;-60
2023/07/30 02:55:00;;;;;;;9.60;4.18;;;17.80;99.90;;;;;;5053673;28;20032;-60
2023/07/30 02:57:25;;;;;;;7.45;3.63;;;17.80;99.90;;;;;;5053730;28;20041;-60
2023/07/30 02:59:51;;;;;;;6.22;3.60;;;17.60;99.90;;;;;;5054284;28;20021;-60
2023/07/30 03:02:17;;;;;;;6.80;3.88;;;17.60;99.90;;;;;;5053407;28;20050;-59
2023/07/30 03:04:42;;;;;;;9.23;3.55;;;17.60;99.90;;;;;;5053455;28;20139;-60
2023/07/30 03:07:09;;;;;;;10.43;4.38;;;17.60;99.90;;;;;;5053577;28;20036;-60
2023/07/30 03:09:35;;;;;;;8.48;3.83;;;17.50;99.90;;;;;;5053470;28;20021;-60
2023/07/30 03:12:01;;;;;;;7.68;3.83;;;17.50;99.90;;;;;;5054146;28;20131;-60
2023/07/30 03:14:26;;;;;;;9.18;4.30;;;17.40;99.90;;;;;;5053240;28;20394;-60
2023/07/30 03:16:52;;;;;;;9.32;3.83;;;17.40;99.90;;;;;;5053291;28;20084;-60
2023/07/30 03:19:18;;;;;;;10.77;4.60;;;17.50;99.90;;;;;;5053176;28;20501;-60
2023/07/30 03:21:43;;;;;;;9.02;4.10;;;17.50;99.90;;;;;;5052842;28;20029;-60
2023/07/30 03:24:09;;;;;;;9.02;4.32;;;17.80;99.90;;;;;;5053096;28;20045;-60
2023/07/30 03:26:35;;;;;;;9.63;3.90;;;18.10;99.90;;;;;;5053307;28;20056;-60
2023/07/30 03:29:00;;;;;;;7.63;4.00;;;18.30;99.90;;;;;;5053116;28;20017;-60
2023/07/30 03:31:28;;;;;;;6.85;4.38;;;18.40;99.90;;;;;;5053347;28;20474;-60
2023/07/30 03:33:54;;;;;;;7.72;3.85;;;18.50;99.90;;;;;;5052854;28;20053;-60
2023/07/30 03:36:19;;;;;;;8.27;3.97;;;18.50;99.90;;;;;;5052893;28;20111;-60
2023/07/30 03:38:45;;;;;;;7.63;3.80;;;18.50;99.90;;;;;;5052881;28;20493;-60
2023/07/30 03:41:11;;;;;;;9.98;3.97;;;18.60;99.90;;;;;;5053265;28;20033;-59
2023/07/30 03:43:37;;;;;;;8.70;3.60;;;18.60;99.90;;;;;;5052826;28;20031;-60
2023/07/30 03:46:03;;;;;;;7.65;3.85;;;18.60;99.90;;;;;;5051456;28;20032;-61
2023/07/30 03:48:29;;;;;;;9.68;4.20;;;18.60;99.90;;;;;;5052371;28;20120;-60
2023/07/30 03:50:55;;;;;;;8.18;3.65;;;18.50;99.90;;;;;;5053159;28;20025;-60
2023/07/30 03:53:21;;;;;;;7.13;3.60;;;18.40;99.90;;;;;;5052533;28;20478;-60
2023/07/30 03:55:47;;;;;;;7.97;3.97;;;18.30;99.90;;;;;;5052620;28;20090;-60
2023/07/30 03:58:13;;;;;;;8.95;3.90;;;18.20;99.90;;;;;;5052709;28;20025;-60
2023/07/30 04:00:38;;;;;;;11.13;4.22;;;18.00;99.90;;;;;;5052360;28;20074;-60
2023/07/30 04:03:04;;;;;;;11.20;4.40;;;17.80;99.90;;;;;;5052207;28;20052;-61
2023/07/30 04:05:30;;;;;;;9.63;3.67;;;17.60;99.90;;;;;;5052343;28;20371;-60
2023/07/30 04:07:56;;;;;;;9.82;4.18;;;17.60;99.90;;;;;;5052342;28;20406;-60
2023/07/30 04:10:22;;;;;;;7.03;4.13;;;17.60;99.90;;;;;;5052585;28;20025;-60
2023/07/30 04:12:48;;;;;;;9.57;3.92;;;17.60;99.90;;;;;;5052035;28;20029;-60
2023/07/30 04:15:15;;;;;;;7.70;4.00;;;17.50;99.90;;;;;;5052427;28;20033;-60
2023/07/30 04:17:42;;;;;;;7.93;3.95;;;17.60;99.90;;;;;;5051760;28;20066;-61
2023/07/30 04:20:09;;;;;;;7.63;3.65;;;17.60;99.90;;;;;;5052025;28;20021;-60
2023/07/30 04:22:35;;;;;;;8.57;3.95;;;17.60;99.90;;;;;;5052247;28;20025;-60
2023/07/30 04:25:01;;;;;;;7.40;4.00;;;17.60;99.90;;;;;;5052003;28;20049;-60
2023/07/30 04:27:27;;;;;;;6.68;4.00;;;17.60;99.90;;;;;;5052094;28;20025;-60
2023/07/30 04:29:52;;;;;;;6.55;3.90;;;17.60;99.90;;;;;;5051934;28;20047;-60
2023/07/30 04:32:18;;;;;;;8.85;4.07;;;17.60;99.90;;;;;;5050810;28;20489;-60
2023/07/30 04:34:44;;;;;;;7.25;3.80;;;17.60;99.90;;;;;;5052089;28;20486;-60
2023/07/30 04:37:09;;;;;;;7.82;3.83;;;17.80;99.90;;;;;;5051607;28;20033;-59
2023/07/30 04:39:35;;;;;;;7.70;3.97;;;18.00;99.90;;;;;;5051624;28;20059;-59
2023/07/30 04:42:02;;;;;;;10.00;3.90;;;18.10;99.90;;;;;;5052027;28;20025;-60
2023/07/30 04:44:28;;;;;;;8.23;3.80;;;18.10;99.90;;;;;;5051706;28;20379;-60
2023/07/30 04:46:53;;;;;;;11.02;3.92;;;18.20;99.90;;;;;;5050136;28;20116;-60
2023/07/30 04:49:19;;;;;;;7.05;3.90;;;18.20;99.90;;;;;;5051578;28;20036;-60
2023/07/30 04:51:45;;;;;;;6.88;4.07;;;18.20;99.90;;;;;;5051513;28;20036;-59
2023/07/30 04:54:10;;;;;;;8.55;3.88;;;18.20;99.90;;;;;;5051524;28;20036;-60
2023/07/30 04:56:36;;;;;;;5.43;3.78;;;18.30;99.90;;;;;;5051357;28;20086;-60
2023/07/30 04:59:03;;;;;;;7.65;3.92;;;18.30;99.90;;;;;;5051851;28;20376;-60
2023/07/30 05:01:29;;;;;;;6.47;3.88;;;18.30;99.90;;;;;;5051141;28;20486;-60
2023/07/30 05:03:54;;;;;;;7.30;4.03;;;18.30;99.90;;;;;;5051468;28;20025;-60
2023/07/30 05:06:20;;;;;;;10.27;4.38;;;18.20;99.90;;;;;;5050110;28;20083;-60
2023/07/30 05:08:46;;;;;;;9.90;4.35;;;18.00;99.90;;;;;;5051249;28;20104;-60
2023/07/30 05:11:11;;;;;;;11.20;4.65;;;17.90;99.90;;;;;;5051376;28;20092;-60
2023/07/30 05:13:37;;;;;;;8.07;4.07;;;17.90;99.90;;;;;;5051172;28;20029;-60
2023/07/30 05:16:03;;;;;;;10.32;4.72;;;17.70;99.90;;;;;;5051290;28;20033;-60
2023/07/30 05:18:28;;;;;;;8.30;4.22;;;17.60;99.90;;;;;;5051016;28;20489;-60
2023/07/30 05:20:55;;;;;;;8.52;4.47;;;17.60;99.90;;;;;;5051155;28;20104;-60
2023/07/30 05:23:20;;;;;;;10.38;4.90;;;17.40;99.90;;;;;;5051033;28;20509;-60
2023/07/30 05:25:46;;;;;;;9.65;4.72;;;17.50;99.90;;;;;;5051001;28;20041;-60
2023/07/30 05:28:12;;;;;;;12.48;4.80;;;17.40;99.90;;;;;;5050976;28;20025;-60
2023/07/30 05:30:38;;;;;;;10.68;4.75;;;17.40;99.90;;;;;;5051073;28;20032;-60
2023/07/30 05:33:04;;;;;;;10.25;4.95;;;17.40;99.90;;;;;;5051191;28;20508;-60
2023/07/30 05:35:30;;;;;;;10.88;5.03;;;17.40;99.90;;;;;;5050965;28;20120;-60
2023/07/30 05:37:55;;;;;;;10.20;4.85;;;17.40;99.90;;;;;;5051087;28;20033;-60
2023/07/30 05:40:21;;;;;;;9.43;4.60;;;17.40;99.90;;;;;;5050987;28;20036;-60
2023/07/30 05:42:47;;;;;;;10.38;4.90;;;17.40;99.90;;;;;;5050509;28;20112;-60
2023/07/30 05:45:13;;;;;;;8.52;4.53;;;17.50;99.90;;;;;;5055544;28;20104;-60
2023/07/30 05:47:39;;;;;;;11.00;4.93;;;17.60;99.90;;;;;;5054954;28;20036;-60
2023/07/30 05:50:08;;;;;;;8.52;4.78;;;17.60;99.90;;;;;;5055069;28;20033;-60
2023/07/30 05:52:34;;;;;;;9.20;4.18;;;17.70;99.90;;;;;;5055051;28;20028;-60
2023/07/30 05:55:00;;;;;;;10.77;4.47;;;17.90;99.90;;;;;;5054736;28;20041;-59
2023/07/30 05:57:26;;;;;;;9.25;4.78;;;18.10;99.90;;;;;;5054980;28;20409;-60
2023/07/30 05:59:52;;;;;;;9.85;4.30;;;18.20;99.90;;;;;;5054867;28;20029;-59
2023/07/30 06:02:17;;;;;;;13.15;4.65;;;18.30;99.90;;;;;;5054977;28;20033;-60
2023/07/30 06:04:44;;;;;;;9.85;4.45;;;18.40;99.90;;;;;;5055165;28;20028;-60
2023/07/30 06:07:10;;;;;;;7.90;4.47;;;18.50;99.90;;;;;;5054669;28;20055;-60
2023/07/30 06:09:36;;;;;;;10.25;4.28;;;18.60;99.90;;;;;;5054383;28;20021;-60
2023/07/30 06:12:02;;;;;;;9.48;4.47;;;18.50;99.90;;;;;;5052994;28;20055;-60
2023/07/30 06:14:28;;;;;;;8.80;3.92;;;18.60;99.90;;;;;;5054279;28;20033;-60
2023/07/30 06:16:54;;;;;;;8.05;4.00;;;18.60;99.90;;;;;;5054645;28;20069;-60
2023/07/30 06:19:19;;;;;;;6.40;4.30;;;18.60;99.90;;;;;;5054665;28;20078;-60
2023/07/30 06:21:46;;;;;;;10.10;4.68;;;18.50;99.90;;;;;;5054534;28;20102;-60
2023/07/30 06:24:12;;;;;;;11.30;4.80;;;18.50;99.90;;;;;;5054226;28;20037;-59
2023/07/30 06:26:37;;;;;;;7.78;4.68;;;18.50;99.90;;;;;;5053995;28;20092;-60
2023/07/30 06:29:03;;;;;;;9.00;4.53;;;18.50;99.90;;;;;;5054344;28;20025;-60
2023/07/30 06:31:29;;;;;;;10.88;4.53;;;18.50;99.90;;;;;;5054206;28;20025;-61
2023/07/30 06:33:55;;;;;;;7.68;4.00;;;18.50;99.90;;;;;;5054435;28;20021;-60
2023/07/30 06:36:21;;;;;;;11.75;4.70;;;18.50;99.90;;;;;;5054136;28;20029;-60
2023/07/30 06:38:47;;;;;;;10.57;4.80;;;18.50;99.90;;;;;;5053998;28;20021;-60
2023/07/30 06:41:14;;;;;;;8.32;4.93;;;18.50;99.90;;;;;;5053894;28;20056;-61
2023/07/30 06:43:39;;;;;;;10.55;4.38;;;18.50;99.90;;;;;;5052693;28;20025;-60
2023/07/30 06:46:05;;;;;;;9.30;4.38;;;18.60;99.90;;;;;;5053923;28;20492;-60
2023/07/30 06:48:31;;;;;;;8.43;4.30;;;18.60;99.90;;;;;;5054312;28;20025;-60
2023/07/30 06:50:57;;;;;;;11.95;4.50;;;18.60;99.90;;;;;;5053919;28;20032;-60
2023/07/30 06:53:22;;;;;;;12.63;4.50;;;18.50;99.90;;;;;;5053772;28;20098;-60
2023/07/30 06:55:48;;;;;;;10.93;4.65;;;18.50;99.90;;;;;;5052678;28;20494;-60
2023/07/30 06:58:14;;;;;;;9.60;4.30;;;18.50;99.90;;;;;;5052478;28;20028;-59
2023/07/30 07:00:39;;;;;;;9.02;4.47;;;18.60;99.90;;;;;;5053716;28;20025;-60
2023/07/30 07:03:05;;;;;;;8.82;4.43;;;18.70;99.90;;;;;;5054048;28;20025;-60
2023/07/30 07:05:31;;;;;;;9.93;4.07;;;18.90;99.90;;;;;;5053551;28;20091;-60
2023/07/30 07:07:56;;;;;;;9.65;4.65;;;19.00;99.90;;;;;;5053401;28;20556;-60
2023/07/30 07:10:22;;;;;;;8.18;3.78;;;19.20;99.90;;;;;;5053192;28;20041;-60
2023/07/30 07:12:48;;;;;;;10.05;4.15;;;19.40;99.90;;;;;;5052169;28;20056;-60
2023/07/30 07:15:14;;;;;;;10.02;4.18;;;19.60;99.90;;;;;;5053312;28;20128;-60
2023/07/30 07:17:40;;;;;;;11.25;4.63;;;19.70;99.90;;;;;;5053607;28;20045;-60
2023/07/30 07:20:07;;;;;;;8.73;3.78;;;19.80;99.90;;;;;;5053246;28;20473;-60
2023/07/30 07:22:33;;;;;;;10.90;4.25;;;19.90;99.90;;;;;;5053513;28;20035;-60
2023/07/30 07:24:59;;;;;;;10.95;4.13;;;19.90;99.90;;;;;;5053405;28;20053;-60
2023/07/30 07:27:25;;;;;;;10.27;4.07;;;20.00;99.90;;;;;;5053235;28;20094;-60
2023/07/30 07:29:51;;;;;;;10.52;3.60;;;20.10;99.90;;;;;;5053279;28;20032;-60
2023/07/30 07:32:18;;;;;;;11.15;3.58;;;20.20;99.90;;;;;;5053082;28;20037;-59
2023/07/30 07:34:50;;;;;;;10.43;3.88;;;20.30;99.90;;;;;;5053470;28;20029;-60
2023/07/30 07:37:18;;;;;;;10.75;3.67;;;20.30;99.90;;;;;;5053180;28;20033;-60
2023/07/30 07:39:44;;;;;;;10.52;3.90;;;20.30;99.90;;;;;;5052646;28;20025;-60
2023/07/30 07:42:10;;;;;;;7.45;3.55;;;20.30;99.90;;;;;;5053439;28;20029;-60
2023/07/30 07:44:36;;;;;;;9.48;3.67;;;20.30;99.90;;;;;;5052982;28;20047;-60
2023/07/30 07:47:01;;;;;;;8.75;3.35;;;20.20;99.90;;;;;;5052831;28;20386;-60
2023/07/30 07:49:27;;;;;;;10.55;3.70;;;20.20;99.90;;;;;;5052742;28;20033;-60
2023/07/30 07:51:53;;;;;;;14.15;4.28;;;20.20;99.90;;;;;;5053173;28;20029;-60
2023/07/30 07:54:18;;;;;;;10.13;3.75;;;20.20;99.90;;;;;;5052473;28;20035;-60
2023/07/30 07:56:44;;;;;;;9.02;3.63;;;20.20;99.90;;;;;;5052662;28;20048;-60
2023/07/30 07:59:10;;;;;;;10.07;4.03;;;20.30;99.90;;;;;;5052706;28;20078;-60
2023/07/30 08:01:36;;;;;;;10.50;3.63;;;20.30;99.90;;;;;;5052871;28;20039;-60
2023/07/30 08:04:02;;;;;;;7.00;3.50;;;20.30;99.90;;;;;;5052759;28;20025;-60
2023/07/30 08:06:28;;;;;;;9.25;3.72;;;20.30;99.90;;;;;;5051676;28;20029;-60
2023/07/30 08:08:54;;;;;;;10.48;3.95;;;20.30;99.90;;;;;;5051943;28;20108;-60
2023/07/30 08:11:19;;;;;;;8.10;3.75;;;20.30;99.90;;;;;;5052408;28;20039;-59
2023/07/30 08:13:45;;;;;;;10.73;4.03;;;20.30;99.90;;;;;;5052182;28;20029;-60
2023/07/30 08:16:12;;;;;;;9.20;3.67;;;20.30;99.90;;;;;;5052581;28;20039;-60
2023/07/30 08:18:37;;;;;;;9.20;3.40;;;20.40;99.90;;;;;;5052128;28;20092;-60
2023/07/30 08:21:03;;;;;;;10.70;3.80;;;20.50;99.90;;;;;;5052115;28;20457;-60
2023/07/30 08:23:29;;;;;;;7.25;3.38;;;20.70;99.90;;;;;;5051585;28;20494;-60
2023/07/30 08:25:54;;;;;;;12.88;3.90;;;20.80;99.90;;;;;;5052103;28;20033;-60
2023/07/30 08:28:21;;;;;;;8.05;3.88;;;21.00;99.90;;;;;;5052040;28;20383;-60
2023/07/30 08:30:46;;;;;;;9.85;3.78;;;21.10;99.90;;;;;;5051965;28;20040;-60
2023/07/30 08:33:12;;;;;;;6.15;3.47;;;21.10;99.90;;;;;;5052407;28;20079;-59
2023/07/30 08:35:38;;;;;;;8.20;3.80;;;21.30;99.90;;;;;;5051745;28;20051;-59
2023/07/30 08:38:04;;;;;;;8.60;3.95;;;21.40;99.90;;;;;;5051386;28;20025;-60
2023/07/30 08:40:29;;;;;;;8.63;4.03;;;21.50;99.90;;;;;;5051802;28;20032;-60
2023/07/30 08:42:55;;;;;;;10.20;3.85;;;21.50;99.90;;;;;;5051739;28;20509;-59
2023/07/30 08:45:21;;;;;;;9.95;3.88;;;21.60;99.90;;;;;;5051659;28;20117;-58
2023/07/30 08:47:47;;;;;;;7.63;4.10;;;21.70;99.90;;;;;;5051708;28;20052;-60
2023/07/30 08:50:13;;;;;;;8.95;4.13;;;21.70;99.90;;;;;;5051604;28;20053;-60
2023/07/30 08:52:40;;;;;;;9.57;3.75;;;21.80;99.90;;;;;;5051742;28;20037;-60
2023/07/30 08:55:07;;;;;;;7.65;3.72;;;21.80;99.90;;;;;;5051477;28;20075;-60
2023/07/30 08:57:33;;;;;;;11.13;3.78;;;21.60;99.90;;;;;;5051396;28;20021;-60
2023/07/30 09:00:08;;;;;;;7.97;3.90;;;21.50;99.90;;;;;;5051548;28;20542;-60
2023/07/30 09:02:38;;;;;;;9.88;3.85;;;21.50;99.90;;;;;;5051864;28;20049;-59
2023/07/30 09:05:05;;;;;;;8.27;3.53;;;21.40;99.90;;;;;;5051278;28;20577;-59
2023/07/30 09:07:31;;;;;;;10.48;4.18;;;21.40;99.90;;;;;;5051022;28;20093;-59
2023/07/30 09:09:57;;;;;;;8.50;4.00;;;21.30;99.90;;;;;;5051476;28;20033;-59
2023/07/30 09:12:32;;;;;;;8.98;4.28;;;21.40;99.90;;;;;;5051915;28;20109;-60
2023/07/30 09:14:59;;;;;;;11.18;4.28;;;21.40;99.90;;;;;;5051066;28;20032;-59
2023/07/30 09:17:25;;;;;;;8.88;3.60;;;21.40;99.90;;;;;;5051261;28;20021;-59
2023/07/30 09:19:52;;;;;;;8.88;3.78;;;21.40;99.90;;;;;;5050700;28;20035;-59
2023/07/30 09:22:38;;;;;;;9.45;4.30;;;21.30;99.90;;;;;;5050811;28;20489;-60
2023/07/30 09:25:05;;;;;;;8.13;3.72;;;21.30;99.90;;;;;;5051041;28;20048;-60
2023/07/30 09:27:31;;;;;;;9.25;3.67;;;21.40;99.90;;;;;;5051311;28;20025;-60
2023/07/30 09:29:58;;;;;;;7.90;3.80;;;21.50;99.90;;;;;;5051080;28;20041;-59
2023/07/30 09:32:29;;;;;;;9.23;3.50;;;21.50;99.90;;;;;;5051029;28;20047;-60
2023/07/30 09:35:11;;;;;;;6.70;3.10;;;21.60;99.90;;;;;;5051048;28;20029;-59
2023/07/30 09:37:38;;;;;;;9.93;3.70;;;21.70;99.90;;;;;;5050984;28;20029;-60
2023/07/30 09:40:16;;;;;;;10.02;3.08;;;21.80;99.90;;;;;;5051006;28;20025;-59
2023/07/30 09:42:46;;;;;;;7.70;3.83;;;21.90;99.90;;;;;;5051195;28;20029;-59
2023/07/30 09:45:23;;;;;;;7.30;3.20;;;22.20;99.90;;;;;;5051520;28;20126;-60
2023/07/30 09:47:50;;;;;;;8.32;3.58;;;22.20;99.90;;;;;;5051152;28;20520;-60
2023/07/30 09:50:16;;;;;;;10.38;3.22;;;22.40;99.90;;;;;;5050636;28;20020;-59
2023/07/30 09:52:43;;;;;;;9.02;3.08;;;22.40;99.90;;;;;;5050891;28;20402;-59
2023/07/30 09:55:09;;;;;;;7.85;2.90;;;22.30;99.90;;;;;;5050910;28;20040;-60
2023/07/30 09:57:36;;;;;;;6.95;3.00;;;22.40;99.90;;;;;;5051250;28;20128;-59
2023/07/30 10:00:06;;;;;;;8.32;3.03;;;22.60;99.90;;;;;;5050968;28;20047;-59
2023/07/30 10:02:42;;;;;;;5.60;2.80;;;22.60;99.90;;;;;;5050887;28;20025;-59
2023/07/30 10:05:14;;;;;;;8.80;2.95;;;22.60;99.90;;;;;;5050382;28;20120;-59
2023/07/30 10:07:56;;;;;;;7.65;3.10;;;22.70;99.90;;;;;;5050718;28;20025;-59
2023/07/30 10:10:25;;;;;;;7.18;3.05;;;22.70;99.90;;;;;;5050939;28;20033;-59
2023/07/30 10:12:52;;;;;;;6.80;2.70;;;22.70;99.90;;;;;;5050703;28;20096;-60
2023/07/30 10:15:23;;;;;;;7.53;2.75;;;22.60;99.90;;;;;;5030888;28;20223;-60
2023/07/30 10:17:52;;;;;;;8.10;3.17;;;22.50;99.90;;;;;;5031124;28;20021;-60
2023/07/30 10:20:26;;;;;;;8.55;3.83;;;22.40;99.90;;;;;;5030415;28;20041;-60
2023/07/30 10:22:54;;;;;;;8.90;3.25;;;22.50;99.90;;;;;;5030736;28;20079;-59
2023/07/30 10:25:48;;;;;;;7.50;3.03;;;22.40;99.90;;;;;;5030914;28;20053;-59
2023/07/30 10:28:29;;;;;;;;;;;22.50;99.90;;;;;;5031115;28;20026;-60
2023/07/30 10:31:04;;;;;;;7.55;2.95;;;22.50;99.90;;;;;;5032282;28;19943;-59
2023/07/30 10:33:46;;;;;;;8.23;2.72;;;22.40;99.90;;;;;;5034012;28;20024;-59
2023/07/30 10:36:11;;;;;;;7.70;3.15;;;22.30;99.90;;;;;;5034573;28;20100;-59
2023/07/30 10:38:38;;;;;;;8.05;3.38;;;22.30;99.90;;;;;;5034216;28;20025;-60
2023/07/30 10:41:08;;;;;;;8.52;3.15;;;22.40;99.90;;;;;;5034308;28;20032;-59
2023/07/30 10:43:35;;;;;;;6.70;3.00;;;22.50;99.90;;;;;;5034107;28;20044;-59
2023/07/30 10:46:01;;;;;;;6.93;3.20;;;22.30;99.90;;;;;;5032706;28;20395;-60
2023/07/30 10:48:38;;;;;;;8.68;3.50;;;22.20;99.90;;;;;;5033823;28;20030;-59
2023/07/30 10:51:06;;;;;;;7.65;2.90;;;22.30;99.90;;;;;;5034153;28;20422;-59
2023/07/30 10:53:32;;;;;;;8.32;2.97;;;22.30;99.90;;;;;;5033932;28;20525;-61
2023/07/30 10:56:03;;;;;;;8.30;3.10;;;22.30;99.90;;;;;;5034145;28;20037;-59
2023/07/30 10:58:31;;;;;;;7.70;2.78;;;22.30;99.90;;;;;;5033969;28;20029;-59
2023/07/30 11:00:57;;;;;;;7.68;3.30;;;22.40;99.90;;;;;;5033776;28;20045;-60
2023/07/30 11:03:29;;;;;;;7.05;2.92;;;22.60;99.90;;;;;;5033463;28;20154;-59
2023/07/30 11:05:55;;;;;;;6.80;2.78;;;22.70;99.90;;;;;;5033858;28;20490;-60
2023/07/30 11:08:34;;;;;;;7.85;2.83;;;22.90;99.90;;;;;;5033626;28;20030;-59
2023/07/30 11:11:00;;;;;;;7.15;2.90;;;23.00;99.90;;;;;;5033751;28;20026;-59
2023/07/30 11:13:26;;;;;;;7.38;3.58;;;23.10;99.90;;;;;;5038335;28;20025;-59
2023/07/30 11:15:52;;;;;;;7.15;3.00;;;23.10;99.90;;;;;;5053424;28;20460;-59
2023/07/30 11:18:18;;;;;;;7.07;3.13;;;23.20;99.90;;;;;;5053078;28;20017;-59
2023/07/30 11:20:43;;;;;;;7.90;2.95;;;23.20;99.90;;;;;;5053326;28;20433;-59
2023/07/30 11:23:23;;;;;;;6.40;3.03;;;23.10;99.90;;;;;;5053518;28;20082;-60
2023/07/30 11:25:50;;;;;;;6.32;3.33;;;23.20;99.90;;;;;;5052308;28;20444;-59
2023/07/30 11:28:32;;;;;;;8.73;3.40;;;23.20;99.90;;;;;;5053112;28;20116;-60
2023/07/30 11:31:06;;;;;;;8.98;3.25;;;23.50;99.90;;;;;;5052922;28;20489;-59
2023/07/30 11:33:33;;;;;;;7.40;3.25;;;23.40;99.90;;;;;;5053501;28;20371;-59
2023/07/30 11:36:02;;;;;;;8.18;3.13;;;23.40;99.90;;;;;;5053087;28;20047;-58
2023/07/30 11:38:29;;;;;;;6.28;2.75;;;23.20;99.90;;;;;;5053198;28;20029;-60
2023/07/30 11:40:55;;;;;;;7.20;2.92;;;23.30;99.90;;;;;;5052721;28;20551;-59
2023/07/30 11:43:22;;;;;;;8.65;3.33;;;23.30;99.90;;;;;;5052911;28;20017;-60
2023/07/30 11:45:48;;;;;;;8.63;3.10;;;23.20;99.90;;;;;;5052650;28;20052;-60
2023/07/30 11:48:14;;;;;;;7.20;3.10;;;23.20;99.90;;;;;;5053151;28;20403;-60
2023/07/30 11:50:51;;;;;;;8.30;3.00;;;23.00;99.90;;;;;;5052846;28;20078;-60
2023/07/30 11:53:18;;;;;;;9.23;3.20;;;23.00;99.90;;;;;;5051420;28;20449;-59
2023/07/30 11:55:44;;;;;;;9.15;2.60;;;23.20;99.90;;;;;;5051398;28;20104;-59
2023/07/30 11:58:12;;;;;;;7.38;3.05;;;23.20;99.90;;;;;;5052795;28;20025;-59
2023/07/30 12:00:43;;;;;;;7.57;2.70;;;23.20;99.90;;;;;;5052251;28;20028;-60
2023/07/30 12:03:11;;;;;;;7.70;3.08;;;23.20;99.90;;;;;;5052633;28;20036;-59
2023/07/30 12:05:38;;;;;;;6.85;2.85;;;23.10;99.90;;;;;;5052514;28;20075;-59
2023/07/30 12:08:07;;;;;;;8.57;3.00;;;23.30;99.90;;;;;;5052805;28;20033;-59
2023/07/30 12:10:47;;;;;;;8.40;3.25;;;23.40;99.90;;;;;;5052475;28;20024;-59
2023/07/30 12:13:19;;;;;;;6.32;2.97;;;23.20;99.90;;;;;;5052281;28;20032;-59
2023/07/30 12:15:55;;;;;;;10.50;3.10;;;22.90;99.90;;;;;;5051962;28;20029;-59
2023/07/30 12:18:23;;;;;;;8.85;3.20;;;23.10;99.90;;;;;;5052261;28;20444;-59
2023/07/30 12:20:53;;;;;;;6.47;2.97;;;23.40;99.90;;;;;;5052101;28;20059;-59
2023/07/30 12:23:19;;;;;;;8.70;2.80;;;23.40;99.90;;;;;;5052546;28;20411;-59
2023/07/30 12:25:46;;;;;;;6.05;2.60;;;23.70;99.90;;;;;;5052006;28;20053;-59
2023/07/30 12:28:12;;;;;;;8.90;3.38;;;24.00;99.90;;;;;;5051964;28;20455;-59
2023/07/30 12:30:37;;;;;;;8.90;3.17;;;24.00;99.90;;;;;;5050441;28;20595;-59
2023/07/30 12:33:04;;;;;;;7.15;2.90;;;24.10;99.90;;;;;;5051028;28;20029;-60
2023/07/30 12:35:33;;;;;;;7.70;2.83;;;24.20;99.90;;;;;;5050490;28;20076;-59
2023/07/30 12:38:01;;;;;;;6.93;2.70;;;24.20;99.90;;;;;;5051880;28;20096;-60
2023/07/30 12:40:33;;;;;;;6.82;2.65;;;24.10;99.90;;;;;;5051890;28;20036;-59
2023/07/30 12:43:02;;;;;;;8.23;3.53;;;24.40;99.90;;;;;;5051756;28;20033;-59
2023/07/30 12:45:29;;;;;;;8.25;2.80;;;24.40;99.90;;;;;;5051730;28;20033;-60